Time;durP1;ratioP1;P1;durP2;ratioP2;P2;SDS_P1;SDS_P2;PMS_P1;PMS_P2;Temp;Humidity;BMP_temperature;BMP_pressure;BME280_temperature;BME280_humidity;BME280_pressure;Samples;Min_cycle;Max_cycle;Signal;HPM_P1;HPM_P2
2022/02/23 00:00:34;;;;;;;;;3.00;0.75;;;;;;;;5076359;28;45538;-71
2022/02/23 00:02:59;;;;;;;;;3.00;1.50;;;;;;;;5076119;27;45945;-71
2022/02/23 00:05:24;;;;;;;;;4.25;2.25;;;;;;;;5075861;28;45463;-70
2022/02/23 00:07:50;;;;;;;;;2.25;1.75;;;;;;;;5075683;28;46444;-71
2022/02/23 00:10:15;;;;;;;;;2.50;1.25;;;;;;;;5075577;28;45413;-71
2022/02/23 00:12:40;;;;;;;;;2.75;1.00;;;;;;;;5076543;27;46302;-71
2022/02/23 00:15:06;;;;;;;;;2.00;2.00;;;;;;;;5075607;28;45526;-71
2022/02/23 00:17:31;;;;;;;;;2.00;1.00;;;;;;;;5075869;28;45469;-71
2022/02/23 00:19:56;;;;;;;;;1.75;1.75;;;;;;;;5075747;28;45480;-71
2022/02/23 00:22:22;;;;;;;;;3.00;0.75;;;;;;;;5075529;28;47154;-71
2022/02/23 00:24:48;;;;;;;;;1.25;1.25;;;;;;;;5076440;28;45516;-71
2022/02/23 00:27:13;;;;;;;;;3.75;2.50;;;;;;;;5074940;27;45482;-71
2022/02/23 00:29:39;;;;;;;;;1.00;1.00;;;;;;;;5075475;28;45457;-71
2022/02/23 00:32:04;;;;;;;;;1.00;1.00;;;;;;;;5086044;27;46422;-71
2022/02/23 00:34:29;;;;;;;;;3.75;0.50;;;;;;;;5075804;28;45325;-71
2022/02/23 00:36:55;;;;;;;;;2.75;1.00;;;;;;;;5076670;28;45299;-71
2022/02/23 00:39:21;;;;;;;;;1.00;1.00;;;;;;;;5074743;28;45506;-71
2022/02/23 00:41:46;;;;;;;;;2.00;1.00;;;;;;;;5074864;28;46008;-71
2022/02/23 00:44:11;;;;;;;;;3.00;2.00;;;;;;;;5075090;28;45500;-71
2022/02/23 00:46:37;;;;;;;;;1.25;1.25;;;;;;;;5075643;28;48038;-71
2022/02/23 00:49:02;;;;;;;;;2.75;1.75;;;;;;;;5075812;28;45460;-71
2022/02/23 00:51:27;;;;;;;;;2.25;1.00;;;;;;;;5075056;27;46257;-71
2022/02/23 00:53:52;;;;;;;;;1.00;1.00;;;;;;;;5074227;28;45423;-71
2022/02/23 00:56:17;;;;;;;;;1.00;1.00;;;;;;;;5075169;28;45424;-71
2022/02/23 00:58:43;;;;;;;;;2.25;1.75;;;;;;;;5084221;27;45599;-71
2022/02/23 01:01:08;;;;;;;;;2.00;2.00;;;;;;;;5077780;27;47326;-71
2022/02/23 01:03:33;;;;;;;;;3.25;1.00;;;;;;;;5075285;28;45334;-71
2022/02/23 01:05:58;;;;;;;;;1.50;1.50;;;;;;;;5074815;28;45221;-71
2022/02/23 01:08:24;;;;;;;;;2.50;1.00;;;;;;;;5074717;28;45343;-70
2022/02/23 01:10:49;;;;;;;;;2.00;1.00;;;;;;;;5074787;28;45312;-71
2022/02/23 01:13:14;;;;;;;;;6.00;1.50;;;;;;;;5074794;28;45279;-71
2022/02/23 01:15:39;;;;;;;;;3.50;1.50;;;;;;;;5080271;27;45496;-71
2022/02/23 01:18:05;;;;;;;;;1.50;1.50;;;;;;;;5078691;27;45247;-71
2022/02/23 01:20:30;;;;;;;;;1.50;1.00;;;;;;;;5074988;27;46163;-71
2022/02/23 01:22:57;;;;;;;;;2.25;1.00;;;;;;;;5074515;28;45218;-71
2022/02/23 01:25:24;;;;;;;;;0.75;0.75;;;;;;;;5075412;28;45813;-71
2022/02/23 01:27:49;;;;;;;;;1.00;1.00;;;;;;;;5073533;28;45336;-71
2022/02/23 01:30:15;;;;;;;;;2.50;1.50;;;;;;;;5078825;27;45563;-71
2022/02/23 01:32:40;;;;;;;;;2.00;1.00;;;;;;;;5076649;27;45700;-71
2022/02/23 01:35:05;;;;;;;;;2.00;2.00;;;;;;;;5062501;28;45527;-71
2022/02/23 01:37:30;;;;;;;;;2.00;2.00;;;;;;;;5074185;27;45232;-71
2022/02/23 01:39:56;;;;;;;;;1.25;0.75;;;;;;;;5075494;28;45387;-71
2022/02/23 01:42:21;;;;;;;;;3.75;2.00;;;;;;;;5074669;28;45581;-71
2022/02/23 01:44:46;;;;;;;;;1.00;1.00;;;;;;;;5076175;27;45304;-71
2022/02/23 01:47:11;;;;;;;;;4.00;2.00;;;;;;;;5088649;27;45420;-71
2022/02/23 01:49:37;;;;;;;;;1.25;1.25;;;;;;;;5073720;28;46019;-71
2022/02/23 01:52:02;;;;;;;;;2.00;2.00;;;;;;;;5077552;28;45537;-71
2022/02/23 01:54:28;;;;;;;;;3.00;2.00;;;;;;;;5080279;27;45416;-71
2022/02/23 01:56:53;;;;;;;;;1.00;1.00;;;;;;;;5077946;28;45354;-71
2022/02/23 01:59:18;;;;;;;;;1.00;1.00;;;;;;;;5086412;27;46334;-71
2022/02/23 02:01:43;;;;;;;;;4.00;1.75;;;;;;;;5078119;28;45275;-71
2022/02/23 02:04:08;;;;;;;;;3.00;2.00;;;;;;;;5079088;28;45405;-70
2022/02/23 02:06:34;;;;;;;;;1.25;1.25;;;;;;;;5077299;28;45342;-71
2022/02/23 02:08:59;;;;;;;;;2.75;2.00;;;;;;;;5077744;27;48069;-71
2022/02/23 02:11:24;;;;;;;;;2.50;1.50;;;;;;;;5080282;27;45371;-71
2022/02/23 02:13:49;;;;;;;;;2.25;2.25;;;;;;;;5079268;27;45491;-71
2022/02/23 02:16:15;;;;;;;;;1.50;0.00;;;;;;;;5077930;28;45516;-71
2022/02/23 02:18:40;;;;;;;;;5.50;2.00;;;;;;;;5078421;27;45378;-71
2022/02/23 02:21:05;;;;;;;;;5.25;4.00;;;;;;;;5077442;28;45467;-71
2022/02/23 02:23:30;;;;;;;;;3.00;2.50;;;;;;;;5077268;28;45388;-71
2022/02/23 02:25:56;;;;;;;;;6.00;2.00;;;;;;;;5077875;28;45529;-71
2022/02/23 02:28:21;;;;;;;;;4.50;2.00;;;;;;;;5086297;27;46180;-71
2022/02/23 02:30:46;;;;;;;;;1.00;1.00;;;;;;;;5076871;28;45488;-71
2022/02/23 02:33:11;;;;;;;;;1.00;1.00;;;;;;;;5078556;27;45489;-71
2022/02/23 02:35:38;;;;;;;;;3.00;2.00;;;;;;;;5085040;27;45380;-71
2022/02/23 02:38:04;;;;;;;;;1.25;1.25;;;;;;;;5073604;28;45497;-71
2022/02/23 02:40:30;;;;;;;;;3.00;1.50;;;;;;;;5076683;28;45374;-71
2022/02/23 02:42:55;;;;;;;;;3.00;2.75;;;;;;;;5078525;27;45393;-71
2022/02/23 02:45:21;;;;;;;;;4.00;2.00;;;;;;;;5078033;27;45473;-71
2022/02/23 02:47:46;;;;;;;;;2.00;2.00;;;;;;;;5076970;27;45429;-70
2022/02/23 02:50:12;;;;;;;;;2.50;1.00;;;;;;;;5076521;28;45417;-71
2022/02/23 02:52:37;;;;;;;;;2.00;2.00;;;;;;;;5077529;28;45675;-71
2022/02/23 02:55:02;;;;;;;;;2.50;1.00;;;;;;;;5077913;28;45449;-71
2022/02/23 02:57:27;;;;;;;;;1.00;1.00;;;;;;;;5079897;27;46282;-71
2022/02/23 02:59:53;;;;;;;;;4.25;3.00;;;;;;;;5082036;27;45391;-71
2022/02/23 03:02:18;;;;;;;;;3.50;1.50;;;;;;;;5076039;27;45379;-71
2022/02/23 03:04:43;;;;;;;;;2.75;2.75;;;;;;;;5076336;28;45342;-71
2022/02/23 03:07:08;;;;;;;;;2.50;1.00;;;;;;;;5077454;28;46058;-71
2022/02/23 03:09:34;;;;;;;;;1.75;1.00;;;;;;;;5077070;28;45446;-71
2022/02/23 03:11:59;;;;;;;;;5.00;2.00;;;;;;;;5068934;28;45307;-71
2022/02/23 03:14:24;;;;;;;;;2.00;2.00;;;;;;;;5068908;27;45484;-71
2022/02/23 03:16:49;;;;;;;;;4.00;4.00;;;;;;;;5076880;28;46254;-71
2022/02/23 03:19:16;;;;;;;;;3.75;2.00;;;;;;;;5076299;28;45291;-71
2022/02/23 03:21:41;;;;;;;;;2.75;1.50;;;;;;;;5077510;27;45307;-71
2022/02/23 03:24:07;;;;;;;;;2.00;2.00;;;;;;;;5076853;28;45467;-71
2022/02/23 03:26:32;;;;;;;;;4.00;2.00;;;;;;;;5076930;27;46081;-71
2022/02/23 03:28:57;;;;;;;;;2.25;1.75;;;;;;;;5085149;27;45552;-71
2022/02/23 03:31:22;;;;;;;;;3.00;2.00;;;;;;;;5074853;28;45281;-70
2022/02/23 03:33:48;;;;;;;;;1.75;1.75;;;;;;;;5085265;27;45402;-71
2022/02/23 03:36:14;;;;;;;;;2.00;2.00;;;;;;;;5079089;27;46155;-71
2022/02/23 03:38:40;;;;;;;;;5.00;4.00;;;;;;;;5076254;28;45524;-71
2022/02/23 03:41:05;;;;;;;;;1.50;1.50;;;;;;;;5076488;28;45541;-71
2022/02/23 03:43:31;;;;;;;;;2.25;2.00;;;;;;;;5088992;27;45353;-71
2022/02/23 03:45:56;;;;;;;;;3.75;1.25;;;;;;;;5079369;27;46949;-71
2022/02/23 03:48:21;;;;;;;;;2.50;2.50;;;;;;;;5076755;27;45388;-70
2022/02/23 03:50:47;;;;;;;;;4.00;2.75;;;;;;;;5076057;28;45522;-71
2022/02/23 03:53:12;;;;;;;;;5.50;3.50;;;;;;;;5075779;28;45336;-71
2022/02/23 03:55:37;;;;;;;;;4.25;3.50;;;;;;;;5076277;28;45469;-71
2022/02/23 03:58:02;;;;;;;;;1.50;1.50;;;;;;;;5084980;27;45273;-71
2022/02/23 04:00:28;;;;;;;;;3.00;1.50;;;;;;;;5076609;27;45334;-71
2022/02/23 04:02:53;;;;;;;;;4.25;2.75;;;;;;;;5075519;28;45453;-71
2022/02/23 04:05:18;;;;;;;;;4.25;2.75;;;;;;;;5075692;28;45330;-71
2022/02/23 04:07:43;;;;;;;;;3.25;1.75;;;;;;;;5076216;28;45346;-71
2022/02/23 04:10:09;;;;;;;;;3.50;2.00;;;;;;;;5076844;28;45488;-71
2022/02/23 04:12:34;;;;;;;;;4.50;3.00;;;;;;;;5076261;28;45691;-71
2022/02/23 04:15:00;;;;;;;;;6.50;2.00;;;;;;;;5075536;28;46220;-71
2022/02/23 04:17:25;;;;;;;;;1.75;1.00;;;;;;;;5075170;28;45353;-71
2022/02/23 04:19:50;;;;;;;;;4.50;3.00;;;;;;;;5075794;28;45350;-71
2022/02/23 04:22:15;;;;;;;;;2.50;1.75;;;;;;;;5076054;28;45498;-71
2022/02/23 04:24:41;;;;;;;;;1.50;1.50;;;;;;;;5076562;28;45708;-71
2022/02/23 04:27:06;;;;;;;;;3.75;3.00;;;;;;;;5074779;28;45338;-71
2022/02/23 04:29:31;;;;;;;;;4.00;2.25;;;;;;;;5075729;28;45346;-71
2022/02/23 04:31:57;;;;;;;;;3.75;3.00;;;;;;;;5074983;28;45353;-71
2022/02/23 04:34:22;;;;;;;;;3.00;1.50;;;;;;;;5075458;28;47200;-71
2022/02/23 04:36:48;;;;;;;;;3.00;3.00;;;;;;;;5076159;28;45455;-71
2022/02/23 04:39:14;;;;;;;;;7.00;4.25;;;;;;;;5075845;27;45485;-71
2022/02/23 04:41:39;;;;;;;;;4.50;2.00;;;;;;;;5075064;28;45385;-71
2022/02/23 04:44:05;;;;;;;;;3.25;2.00;;;;;;;;5075343;28;45381;-71
2022/02/23 04:46:31;;;;;;;;;3.75;2.25;;;;;;;;5075396;27;45374;-71
2022/02/23 04:48:56;;;;;;;;;2.75;2.75;;;;;;;;5075994;28;45484;-71
2022/02/23 04:51:23;;;;;;;;;3.25;1.00;;;;;;;;5075100;27;45343;-71
2022/02/23 04:53:49;;;;;;;;;4.50;3.00;;;;;;;;5074946;27;47191;-71
2022/02/23 04:56:14;;;;;;;;;3.75;3.75;;;;;;;;5082033;27;45409;-71
2022/02/23 04:58:39;;;;;;;;;4.00;3.00;;;;;;;;5082770;27;45418;-71
2022/02/23 05:01:05;;;;;;;;;4.75;4.75;;;;;;;;5075673;28;45366;-71
2022/02/23 05:03:31;;;;;;;;;5.25;3.00;;;;;;;;5074869;28;46354;-71
2022/02/23 05:05:56;;;;;;;;;5.50;4.75;;;;;;;;5074843;28;45531;-71
2022/02/23 05:08:21;;;;;;;;;2.50;2.00;;;;;;;;5070282;28;45447;-71
2022/02/23 05:10:47;;;;;;;;;4.00;2.50;;;;;;;;5074629;27;45555;-71
2022/02/23 05:13:12;;;;;;;;;2.25;2.00;;;;;;;;5075381;28;46292;-71
2022/02/23 05:15:37;;;;;;;;;5.00;2.75;;;;;;;;5085256;27;45483;-71
2022/02/23 05:18:06;;;;;;;;;3.00;3.00;;;;;;;;5079093;27;45422;-71
2022/02/23 05:20:32;;;;;;;;;4.25;2.50;;;;;;;;5074416;28;45552;-71
2022/02/23 05:22:57;;;;;;;;;9.00;3.25;;;;;;;;5074784;28;46024;-72
2022/02/23 05:25:24;;;;;;;;;4.00;2.00;;;;;;;;5074960;28;45442;-71
2022/02/23 05:27:49;;;;;;;;;3.50;2.75;;;;;;;;5083084;27;45432;-71
2022/02/23 05:30:14;;;;;;;;;4.75;3.00;;;;;;;;5080796;27;45468;-71
2022/02/23 05:32:40;;;;;;;;;5.25;3.00;;;;;;;;5085680;27;45981;-71
2022/02/23 05:35:05;;;;;;;;;5.25;2.75;;;;;;;;5079311;27;46123;-71
2022/02/23 05:37:31;;;;;;;;;2.00;2.00;;;;;;;;5078620;28;45445;-71
2022/02/23 05:39:56;;;;;;;;;4.50;4.50;;;;;;;;5087082;27;45364;-71
2022/02/23 05:42:21;;;;;;;;;4.75;3.50;;;;;;;;5079611;27;45370;-71
2022/02/23 05:44:47;;;;;;;;;3.25;3.00;;;;;;;;5077380;28;45573;-71
2022/02/23 05:47:12;;;;;;;;;4.25;3.25;;;;;;;;5099376;27;45526;-71
2022/02/23 05:49:37;;;;;;;;;3.00;3.00;;;;;;;;5078013;27;45415;-71
2022/02/23 05:52:03;;;;;;;;;5.00;4.00;;;;;;;;5079096;28;46998;-71
2022/02/23 05:54:30;;;;;;;;;3.00;3.00;;;;;;;;5077536;28;45388;-71
2022/02/23 05:56:55;;;;;;;;;6.00;4.25;;;;;;;;5078058;28;45522;-71
2022/02/23 05:59:21;;;;;;;;;4.75;4.75;;;;;;;;5086108;27;45300;-71
2022/02/23 06:01:46;;;;;;;;;4.00;4.00;;;;;;;;5078269;27;45462;-71
2022/02/23 06:04:11;;;;;;;;;5.00;5.00;;;;;;;;5078336;28;45378;-71
2022/02/23 06:06:36;;;;;;;;;5.00;5.00;;;;;;;;5078673;27;45436;-72
2022/02/23 06:09:02;;;;;;;;;4.50;4.00;;;;;;;;5082593;27;45346;-71
2022/02/23 06:11:27;;;;;;;;;4.00;4.00;;;;;;;;5077358;28;46483;-71
2022/02/23 06:13:53;;;;;;;;;4.00;2.75;;;;;;;;5077318;28;45754;-71
2022/02/23 06:16:19;;;;;;;;;4.00;4.00;;;;;;;;5085578;27;45274;-71
2022/02/23 06:18:44;;;;;;;;;8.25;5.75;;;;;;;;5078399;28;45221;-71
2022/02/23 06:21:10;;;;;;;;;5.25;3.25;;;;;;;;5077493;27;46906;-71
2022/02/23 06:23:35;;;;;;;;;3.25;3.25;;;;;;;;5077203;27;45271;-71
2022/02/23 06:26:00;;;;;;;;;4.75;4.25;;;;;;;;5076572;28;45446;-71
2022/02/23 06:28:25;;;;;;;;;5.75;5.75;;;;;;;;5085806;27;45351;-71
2022/02/23 06:30:51;;;;;;;;;8.50;4.75;;;;;;;;5083023;27;45244;-71
2022/02/23 06:33:22;;;;;;;;;9.00;4.75;;;;;;;;5079767;27;45440;-71
2022/02/23 06:35:47;;;;;;;;;5.50;4.00;;;;;;;;5078665;27;45506;-71
2022/02/23 06:38:12;;;;;;;;;5.75;5.75;;;;;;;;5075524;28;45285;-71
2022/02/23 06:40:37;;;;;;;;;6.25;4.00;;;;;;;;5077741;28;45432;-71
2022/02/23 06:43:03;;;;;;;;;5.75;5.25;;;;;;;;5078868;27;45424;-71
2022/02/23 06:45:28;;;;;;;;;6.25;4.75;;;;;;;;5077742;27;45336;-71
2022/02/23 06:47:53;;;;;;;;;6.50;4.00;;;;;;;;5077557;28;45421;-71
2022/02/23 06:50:18;;;;;;;;;7.00;4.00;;;;;;;;5076591;28;46214;-71
2022/02/23 06:52:44;;;;;;;;;5.50;3.75;;;;;;;;5077261;28;45578;-71
2022/02/23 06:55:11;;;;;;;;;3.75;3.75;;;;;;;;5093320;27;45423;-71
2022/02/23 06:57:37;;;;;;;;;5.75;4.00;;;;;;;;5075636;28;45237;-70
2022/02/23 07:00:06;;;;;;;;;5.25;4.25;;;;;;;;5076777;28;46066;-71
2022/02/23 07:02:32;;;;;;;;;10.50;4.75;;;;;;;;5073110;28;45466;-71
2022/02/23 07:04:58;;;;;;;;;6.25;6.25;;;;;;;;5071275;28;45401;-71
2022/02/23 07:07:23;;;;;;;;;6.00;6.00;;;;;;;;5076775;28;48140;-71
2022/02/23 07:09:48;;;;;;;;;9.25;6.25;;;;;;;;5075268;28;46128;-72
2022/02/23 07:12:14;;;;;;;;;6.00;6.00;;;;;;;;5076616;28;45449;-71
2022/02/23 07:14:39;;;;;;;;;3.25;2.00;;;;;;;;5079101;27;45370;-71
2022/02/23 07:17:04;;;;;;;;;7.50;5.50;;;;;;;;5075392;28;45436;-68
2022/02/23 07:19:29;;;;;;;;;5.75;4.00;;;;;;;;5074587;28;46239;-68
2022/02/23 07:21:54;;;;;;;;;8.75;5.00;;;;;;;;5075956;27;45266;-67
2022/02/23 07:24:20;;;;;;;;;5.75;3.75;;;;;;;;5074590;28;45386;-68
2022/02/23 07:26:45;;;;;;;;;4.75;4.75;;;;;;;;5074855;27;45748;-68
2022/02/23 07:29:11;;;;;;;;;7.75;4.00;;;;;;;;5074722;28;46803;-68
2022/02/23 07:31:36;;;;;;;;;6.75;5.25;;;;;;;;5072561;28;45378;-71
2022/02/23 07:34:01;;;;;;;;;6.25;5.00;;;;;;;;5076008;27;45296;-69
2022/02/23 07:36:27;;;;;;;;;8.25;5.00;;;;;;;;5073842;27;45570;-68
2022/02/23 07:38:53;;;;;;;;;7.50;5.00;;;;;;;;5077845;27;47076;-69
2022/02/23 07:41:23;;;;;;;;;7.75;4.75;;;;;;;;5075313;28;45565;-68
2022/02/23 07:43:51;;;;;;;;;7.00;4.25;;;;;;;;5075150;27;45300;-68
2022/02/23 07:46:17;;;;;;;;;6.75;4.00;;;;;;;;5082808;27;45542;-68
2022/02/23 07:48:42;;;;;;;;;6.00;6.00;;;;;;;;5079036;27;45909;-69
2022/02/23 07:51:08;;;;;;;;;5.00;5.00;;;;;;;;5075160;27;45619;-69
2022/02/23 07:53:33;;;;;;;;;4.50;4.50;;;;;;;;5075246;28;45679;-69
2022/02/23 07:55:58;;;;;;;;;6.25;5.25;;;;;;;;5076097;27;45501;-70
2022/02/23 07:58:24;;;;;;;;;5.25;4.75;;;;;;;;5075368;27;47121;-69
2022/02/23 08:00:49;;;;;;;;;9.25;6.25;;;;;;;;5075077;28;45366;-68
2022/02/23 08:03:14;;;;;;;;;10.75;5.50;;;;;;;;5066410;27;45382;-68
2022/02/23 08:05:40;;;;;;;;;10.00;7.25;;;;;;;;5065628;28;45342;-67
2022/02/23 08:08:05;;;;;;;;;7.50;5.75;;;;;;;;5074381;28;45606;-68
2022/02/23 08:10:30;;;;;;;;;10.50;6.00;;;;;;;;5056874;27;45335;-67
2022/02/23 08:12:55;;;;;;;;;6.00;5.00;;;;;;;;5074395;27;45407;-67
2022/02/23 08:20:49;;;;;;;;;5.75;4.25;;;;;;;;5068767;28;45450;-67
2022/02/23 08:23:17;;;;;;;;;7.25;6.25;;;;;;;;5071524;28;45448;-68
2022/02/23 08:25:42;;;;;;;;;8.00;6.75;;;;;;;;5071710;28;45397;-67
2022/02/23 08:28:07;;;;;;;;;6.50;5.25;;;;;;;;5081050;27;46006;-68
2022/02/23 08:30:34;;;;;;;;;4.75;4.75;;;;;;;;5074274;27;45429;-68
2022/02/23 08:33:02;;;;;;;;;5.00;5.00;;;;;;;;5078501;27;45450;-68
2022/02/23 08:35:28;;;;;;;;;5.75;5.00;;;;;;;;5072755;28;45474;-68
2022/02/23 08:37:53;;;;;;;;;6.75;4.00;;;;;;;;5071886;28;45949;-68
2022/02/23 08:40:18;;;;;;;;;6.25;5.25;;;;;;;;5074045;27;45488;-68
2022/02/23 08:42:44;;;;;;;;;7.00;5.00;;;;;;;;5075173;28;45472;-68
2022/02/23 08:45:09;;;;;;;;;7.00;5.75;;;;;;;;5072304;28;45426;-68
2022/02/23 08:47:34;;;;;;;;;5.50;5.00;;;;;;;;5072688;28;46985;-68
2022/02/23 08:50:00;;;;;;;;;4.75;4.75;;;;;;;;5075939;27;49533;-68
2022/02/23 08:52:25;;;;;;;;;8.50;5.75;;;;;;;;5074832;27;45541;-68
2022/02/23 08:54:50;;;;;;;;;5.75;3.75;;;;;;;;5087120;27;45382;-68
2022/02/23 08:57:15;;;;;;;;;5.25;5.25;;;;;;;;5077014;27;46162;-68
2022/02/23 08:59:41;;;;;;;;;6.50;4.25;;;;;;;;5074338;27;45356;-68
2022/02/23 09:02:06;;;;;;;;;4.50;4.00;;;;;;;;5070376;28;45437;-71
2022/02/23 09:04:31;;;;;;;;;5.75;5.50;;;;;;;;5074255;28;45533;-71
2022/02/23 09:06:56;;;;;;;;;9.00;6.00;;;;;;;;5075457;28;47016;-71
2022/02/23 09:09:22;;;;;;;;;7.00;7.00;;;;;;;;5074648;28;45458;-71
2022/02/23 09:11:47;;;;;;;;;4.00;4.00;;;;;;;;5074899;28;45327;-71
2022/02/23 09:14:13;;;;;;;;;5.25;5.00;;;;;;;;5074529;28;45506;-71
2022/02/23 09:16:39;;;;;;;;;7.75;4.50;;;;;;;;5075028;28;46231;-71
2022/02/23 09:19:05;;;;;;;;;8.25;5.50;;;;;;;;5075746;28;45389;-71
2022/02/23 09:21:30;;;;;;;;;8.00;6.25;;;;;;;;5062251;28;45601;-71
2022/02/23 09:23:56;;;;;;;;;4.75;2.50;;;;;;;;5075776;27;45531;-71
2022/02/23 09:26:21;;;;;;;;;5.50;5.50;;;;;;;;5074452;28;47953;-70
2022/02/23 09:28:47;;;;;;;;;7.00;5.50;;;;;;;;5074277;27;45493;-71
2022/02/23 09:31:13;;;;;;;;;6.25;5.00;;;;;;;;5080954;27;45320;-71
2022/02/23 09:33:38;;;;;;;;;5.75;5.75;;;;;;;;5075082;27;45458;-70
2022/02/23 09:36:04;;;;;;;;;6.25;4.75;;;;;;;;5073453;27;45444;-71
2022/02/23 09:38:30;;;;;;;;;5.25;3.00;;;;;;;;5074341;27;45456;-71
2022/02/23 09:40:57;;;;;;;;;8.00;6.00;;;;;;;;5074235;28;45521;-71
2022/02/23 09:43:22;;;;;;;;;6.00;5.00;;;;;;;;5074580;28;45283;-71
2022/02/23 09:45:53;;;;;;;;;8.25;7.00;;;;;;;;5074761;27;45750;-71
2022/02/23 09:48:19;;;;;;;;;3.75;3.75;;;;;;;;5074127;28;45477;-71
2022/02/23 09:50:44;;;;;;;;;7.25;7.25;;;;;;;;5073699;28;45512;-71
2022/02/23 09:53:10;;;;;;;;;7.00;5.00;;;;;;;;5073968;28;45429;-71
2022/02/23 09:55:35;;;;;;;;;4.75;4.75;;;;;;;;5077862;27;46244;-71
2022/02/23 09:58:00;;;;;;;;;7.00;6.25;;;;;;;;5081918;27;45404;-71
2022/02/23 10:00:25;;;;;;;;;4.00;4.00;;;;;;;;5074232;27;45625;-71
2022/02/23 10:02:54;;;;;;;;;5.25;5.25;;;;;;;;5074540;27;45525;-71
2022/02/23 10:05:21;;;;;;;;;6.50;5.00;;;;;;;;5073996;28;46481;-71
2022/02/23 10:07:46;;;;;;;;;6.75;5.25;;;;;;;;5073909;28;45363;-71
2022/02/23 10:10:13;;;;;;;;;4.00;4.00;;;;;;;;5076309;27;45367;-71
2022/02/23 10:12:41;;;;;;;;;7.00;7.00;;;;;;;;5076023;28;45453;-71
2022/02/23 10:15:11;;;;;;;;;6.00;6.00;;;;;;;;5077396;27;46856;-71
2022/02/23 10:17:44;;;;;;;;;6.00;6.00;;;;;;;;5076807;28;45563;-71
2022/02/23 10:20:21;;;;;;;;;9.75;6.75;;;;;;;;5076785;28;45579;-71
2022/02/23 10:22:48;;;;;;;;;7.25;4.50;;;;;;;;5062391;28;45499;-71
2022/02/23 10:25:19;;;;;;;;;6.25;5.25;;;;;;;;5076487;28;46177;-71
2022/02/23 10:27:44;;;;;;;;;9.00;4.00;;;;;;;;5081523;27;45486;-70
2022/02/23 10:30:11;;;;;;;;;7.00;6.00;;;;;;;;5080694;27;45499;-71
2022/02/23 10:32:37;;;;;;;;;7.00;5.75;;;;;;;;5076954;28;45427;-70
2022/02/23 10:35:05;;;;;;;;;7.50;7.50;;;;;;;;5077248;27;47088;-70
2022/02/23 10:37:31;;;;;;;;;5.00;5.00;;;;;;;;5078084;27;45323;-70
2022/02/23 10:39:59;;;;;;;;;7.25;5.50;;;;;;;;5078395;28;45467;-70
2022/02/23 10:42:26;;;;;;;;;7.75;6.25;;;;;;;;5076985;28;45388;-70
2022/02/23 10:44:52;;;;;;;;;6.50;5.75;;;;;;;;5076721;28;47127;-70
2022/02/23 10:47:25;;;;;;;;;6.50;5.50;;;;;;;;5076101;28;45426;-70
2022/02/23 10:50:00;;;;;;;;;8.50;8.00;;;;;;;;5061076;28;45375;-69
2022/02/23 10:52:27;;;;;;;;;5.00;5.00;;;;;;;;5075555;28;45481;-70
2022/02/23 10:55:09;;;;;;;;;6.00;4.75;;;;;;;;5082777;27;46132;-70
2022/02/23 10:57:34;;;;;;;;;6.50;6.25;;;;;;;;5080143;27;45456;-69
2022/02/23 11:00:10;;;;;;;;;6.00;6.00;;;;;;;;5081555;27;45350;-71
2022/02/23 11:02:36;;;;;;;;;8.25;7.00;;;;;;;;5076198;28;45518;-70
2022/02/23 11:05:02;;;;;;;;;6.75;5.00;;;;;;;;5076454;28;47232;-70
2022/02/23 11:07:27;;;;;;;;;5.75;5.00;;;;;;;;5085488;27;45606;-70
2022/02/23 11:09:52;;;;;;;;;4.50;4.25;;;;;;;;5077819;28;45453;-69
2022/02/23 11:12:18;;;;;;;;;11.25;7.00;;;;;;;;5076805;28;45377;-70
2022/02/23 11:14:43;;;;;;;;;8.75;8.00;;;;;;;;5076670;28;46086;-69
2022/02/23 11:17:08;;;;;;;;;5.00;5.00;;;;;;;;5076400;28;45366;-69
2022/02/23 11:19:35;;;;;;;;;5.25;5.25;;;;;;;;5077088;27;45389;-69
2022/02/23 11:22:02;;;;;;;;;7.25;5.00;;;;;;;;5071904;28;45426;-69
2022/02/23 11:24:27;;;;;;;;;7.00;6.00;;;;;;;;5075273;27;46929;-69
2022/02/23 11:26:54;;;;;;;;;4.50;4.50;;;;;;;;5076346;28;45429;-69
2022/02/23 11:29:42;;;;;;;;;6.00;6.00;;;;;;;;5084990;27;45434;-69
2022/02/23 11:32:07;;;;;;;;;8.00;6.50;;;;;;;;5064386;28;45648;-69
2022/02/23 11:34:35;;;;;;;;;6.50;5.00;;;;;;;;5076314;28;45429;-69
2022/02/23 11:37:01;;;;;;;;;6.25;5.75;;;;;;;;5076883;28;45536;-70
2022/02/23 11:39:29;;;;;;;;;5.00;5.00;;;;;;;;5076169;27;45458;-69
2022/02/23 11:41:57;;;;;;;;;8.50;7.00;;;;;;;;5078123;27;46415;-69
2022/02/23 11:44:24;;;;;;;;;4.75;4.75;;;;;;;;5086287;27;45580;-69
2022/02/23 11:46:52;;;;;;;;;6.25;6.00;;;;;;;;5076438;27;45565;-69
2022/02/23 11:49:20;;;;;;;;;6.25;6.25;;;;;;;;5076134;28;45254;-69
2022/02/23 11:51:47;;;;;;;;;5.75;5.00;;;;;;;;5077054;28;45368;-69
2022/02/23 11:54:13;;;;;;;;;6.50;6.50;;;;;;;;5075788;28;47110;-69
2022/02/23 11:56:48;;;;;;;;;7.25;5.50;;;;;;;;5077180;27;45379;-69
2022/02/23 11:59:43;;;;;;;;;5.00;5.00;;;;;;;;5071272;28;45422;-69
2022/02/23 12:02:10;;;;;;;;;4.25;4.25;;;;;;;;5070381;28;45545;-69
2022/02/23 12:04:45;;;;;;;;;7.25;6.00;;;;;;;;5075881;28;47082;-69
2022/02/23 12:07:12;;;;;;;;;7.00;6.00;;;;;;;;5085184;27;45334;-69
2022/02/23 12:09:58;;;;;;;;;5.00;4.75;;;;;;;;5076422;28;45355;-70
2022/02/23 12:12:40;;;;;;;;;5.50;4.75;;;;;;;;5071201;28;45707;-68
2022/02/23 12:15:22;;;;;;;;;6.25;5.75;;;;;;;;5075517;28;46682;-68
2022/02/23 12:17:55;;;;;;;;;6.75;5.00;;;;;;;;5076157;27;45323;-70
2022/02/23 12:20:36;;;;;;;;;5.50;5.50;;;;;;;;5076088;27;45437;-70
2022/02/23 12:23:08;;;;;;;;;9.00;5.00;;;;;;;;5076153;27;45365;-69
2022/02/23 12:25:49;;;;;;;;;5.00;5.00;;;;;;;;5075637;27;46879;-69
2022/02/23 12:28:19;;;;;;;;;6.00;5.75;;;;;;;;5081297;27;45249;-70
2022/02/23 12:31:00;;;;;;;;;5.25;5.25;;;;;;;;5074913;28;45380;-70
2022/02/23 12:33:25;;;;;;;;;6.00;6.00;;;;;;;;5073117;28;64227;-70
2022/02/23 12:35:52;;;;;;;;;7.25;6.00;;;;;;;;5078342;27;45266;-70
2022/02/23 12:38:22;;;;;;;;;7.00;6.00;;;;;;;;5086190;27;45351;-70
2022/02/23 12:40:49;;;;;;;;;6.00;6.00;;;;;;;;5075531;28;45575;-70
2022/02/23 12:43:15;;;;;;;;;5.00;5.00;;;;;;;;5075185;28;45421;-70
2022/02/23 12:45:50;;;;;;;;;5.50;4.75;;;;;;;;5075567;28;46349;-70
2022/02/23 12:48:16;;;;;;;;;5.50;5.50;;;;;;;;5079009;27;45450;-70
2022/02/23 12:50:42;;;;;;;;;6.75;5.75;;;;;;;;5082422;27;45257;-70
2022/02/23 12:53:07;;;;;;;;;7.25;7.00;;;;;;;;5074508;27;45493;-70
2022/02/23 12:55:33;;;;;;;;;7.00;6.75;;;;;;;;5075304;28;46302;-70
2022/02/23 12:57:58;;;;;;;;;8.00;5.00;;;;;;;;5075747;27;45457;-70
2022/02/23 13:00:25;;;;;;;;;6.25;6.25;;;;;;;;5074195;28;45394;-70
2022/02/23 13:02:50;;;;;;;;;7.00;6.00;;;;;;;;5074021;27;45552;-70
2022/02/23 13:05:15;;;;;;;;;8.50;4.25;;;;;;;;5078576;27;45325;-70
2022/02/23 13:07:40;;;;;;;;;5.50;3.75;;;;;;;;5074582;27;46946;-70
2022/02/23 13:10:07;;;;;;;;;10.00;6.00;;;;;;;;5071723;27;45383;-70
2022/02/23 13:12:33;;;;;;;;;6.00;5.75;;;;;;;;5074239;28;46234;-70
2022/02/23 13:14:59;;;;;;;;;7.25;5.25;;;;;;;;5074158;28;47158;-70
2022/02/23 13:17:24;;;;;;;;;6.00;4.25;;;;;;;;5074415;28;45289;-70
2022/02/23 13:19:49;;;;;;;;;6.75;5.50;;;;;;;;5074852;28;45449;-70
2022/02/23 13:22:15;;;;;;;;;4.00;4.00;;;;;;;;5075066;28;45529;-70
2022/02/23 13:24:42;;;;;;;;;6.50;5.00;;;;;;;;5075319;28;45453;-70
2022/02/23 13:27:08;;;;;;;;;7.00;5.75;;;;;;;;5074241;28;45331;-70
2022/02/23 13:29:35;;;;;;;;;4.00;4.00;;;;;;;;5074359;28;45479;-70
2022/02/23 13:32:02;;;;;;;;;4.00;3.00;;;;;;;;5074092;27;45429;-70
2022/02/23 13:34:43;;;;;;;;;5.75;5.00;;;;;;;;5074448;28;47269;-70
2022/02/23 13:37:11;;;;;;;;;5.00;5.00;;;;;;;;5071942;27;45315;-70
2022/02/23 13:39:41;;;;;;;;;6.75;5.75;;;;;;;;5074747;28;45729;-70
2022/02/23 13:42:09;;;;;;;;;4.00;4.00;;;;;;;;5073922;28;45434;-70
2022/02/23 13:44:41;;;;;;;;;4.00;4.00;;;;;;;;5073836;28;46197;-70
2022/02/23 13:47:07;;;;;;;;;5.00;4.25;;;;;;;;5063364;27;45449;-70
2022/02/23 13:49:33;;;;;;;;;4.00;4.00;;;;;;;;5081744;27;45397;-70
2022/02/23 13:51:59;;;;;;;;;5.00;5.00;;;;;;;;5078739;28;45647;-70
2022/02/23 13:54:25;;;;;;;;;4.00;4.00;;;;;;;;5077900;28;45348;-70
2022/02/23 13:56:50;;;;;;;;;6.50;5.25;;;;;;;;5077590;28;45465;-70
2022/02/23 13:59:17;;;;;;;;;6.50;5.25;;;;;;;;5086482;27;45462;-70
2022/02/23 14:01:59;;;;;;;;;5.00;5.00;;;;;;;;5078451;27;45400;-70
2022/02/23 14:04:41;;;;;;;;;7.00;5.25;;;;;;;;5081401;27;47074;-70
2022/02/23 14:07:07;;;;;;;;;5.00;4.50;;;;;;;;5080653;27;45676;-70
2022/02/23 14:09:37;;;;;;;;;6.00;5.00;;;;;;;;5077936;27;45603;-70
2022/02/23 14:12:02;;;;;;;;;6.00;6.00;;;;;;;;5076943;28;45445;-70
2022/02/23 14:14:35;;;;;;;;;4.75;4.75;;;;;;;;5076845;27;46040;-71
2022/02/23 14:17:10;;;;;;;;;3.25;3.25;;;;;;;;5077718;28;45372;-70
2022/02/23 14:19:36;;;;;;;;;6.00;4.25;;;;;;;;5077676;28;45341;-70
2022/02/23 14:22:02;;;;;;;;;4.50;4.50;;;;;;;;5078501;28;45394;-70
2022/02/23 14:24:29;;;;;;;;;4.00;4.00;;;;;;;;5077122;28;46150;-70
2022/02/23 14:27:05;;;;;;;;;5.00;5.00;;;;;;;;5071573;27;45554;-70
2022/02/23 14:29:32;;;;;;;;;5.25;4.50;;;;;;;;5074510;27;45489;-70
2022/02/23 14:31:58;;;;;;;;;0.50;0.50;;;;;;;;5065941;28;45531;-70
2022/02/23 14:34:24;;;;;;;;;6.50;6.50;;;;;;;;5077552;28;45487;-70
2022/02/23 14:36:50;;;;;;;;;4.00;4.00;;;;;;;;5077781;28;45399;-70
2022/02/23 14:39:16;;;;;;;;;5.00;5.00;;;;;;;;5076223;27;45494;-71
2022/02/23 14:41:41;;;;;;;;;5.00;5.00;;;;;;;;5077007;28;45458;-70
2022/02/23 14:44:07;;;;;;;;;4.25;4.25;;;;;;;;5076723;28;45465;-70